createdAt,value
2022-09-05T00:02:49.022Z,13.10
2022-09-05T00:05:38.485Z,13.00
2022-09-05T00:08:13.379Z,13.00
2022-09-05T00:10:44.839Z,12.90
2022-09-05T00:13:30.177Z,13.00
2022-09-05T00:16:17.362Z,13.00
2022-09-05T00:23:33.277Z,12.90
2022-09-05T00:24:28.309Z,12.90
2022-09-05T00:28:26.915Z,13.00
2022-09-05T00:31:06.831Z,13.00
2022-09-05T00:34:24.405Z,12.90
2022-09-05T00:36:55.087Z,12.80
2022-09-05T00:39:26.571Z,12.80
2022-09-05T00:44:22.683Z,12.90
2022-09-05T00:47:06.316Z,12.90
2022-09-05T00:49:36.641Z,12.90
2022-09-05T00:52:15.655Z,12.90
2022-09-05T00:55:01.061Z,12.90
2022-09-05T00:57:43.010Z,12.80
2022-09-05T01:00:17.892Z,12.80
2022-09-05T01:05:18.653Z,12.80
2022-09-05T01:08:01.276Z,12.80
2022-09-05T01:10:41.456Z,12.80
2022-09-05T01:13:14.321Z,12.80
2022-09-05T01:15:47.674Z,12.70
2022-09-05T01:20:41.836Z,12.70
2022-09-05T01:23:08.967Z,12.80
2022-09-05T01:25:52.519Z,12.80
2022-09-05T01:29:13.274Z,12.80
2022-09-05T01:31:42.777Z,12.80
2022-09-05T01:34:18.967Z,12.90
2022-09-05T01:36:51.824Z,12.90
2022-09-05T01:40:14.921Z,12.90
2022-09-05T01:42:56.350Z,12.90
2022-09-05T01:45:46.570Z,12.80
2022-09-05T01:48:30.380Z,12.80
2022-09-05T01:51:03.795Z,12.90
2022-09-05T01:53:45.836Z,12.80
2022-09-05T01:56:31.370Z,12.80
2022-09-05T02:01:44.193Z,12.80
2022-09-05T02:04:33.439Z,12.70
2022-09-05T02:07:30.169Z,12.70
2022-09-05T02:12:29.969Z,12.70
2022-09-05T02:14:59.626Z,12.70
2022-09-05T02:17:49.373Z,12.60
2022-09-05T02:20:36.574Z,12.60
2022-09-05T02:23:24.611Z,12.60
2022-09-05T02:26:02.738Z,12.60
2022-09-05T02:31:19.934Z,12.60
2022-09-05T02:33:52.968Z,12.60
2022-09-05T02:36:36.021Z,12.60
2022-09-05T02:43:09.316Z,12.50
2022-09-05T02:45:17.572Z,12.50
2022-09-05T02:45:26.825Z,12.50
2022-09-05T02:48:04.125Z,12.40
2022-09-05T02:55:16.288Z,12.40
2022-09-05T02:57:27.015Z,12.40
2022-09-05T02:57:40.793Z,12.40
2022-09-05T02:59:40.614Z,12.30
2022-09-05T03:02:27.124Z,12.40
2022-09-05T03:05:13.076Z,12.30
2022-09-05T03:07:42.862Z,12.40
2022-09-05T03:10:14.752Z,12.40
2022-09-05T03:13:06.035Z,12.40
2022-09-05T03:15:35.707Z,12.40
2022-09-05T03:18:21.655Z,12.40
2022-09-05T03:20:51.569Z,12.50
2022-09-05T03:23:20.191Z,12.50
2022-09-05T03:25:59.017Z,12.50
2022-09-05T03:28:35.018Z,12.50
2022-09-05T03:31:07.829Z,12.60
2022-09-05T03:34:17.227Z,12.60
2022-09-05T03:36:53.272Z,12.60
2022-09-05T03:39:39.035Z,12.50
2022-09-05T03:42:14.845Z,12.50
2022-09-05T03:44:47.942Z,12.60
2022-09-05T03:47:17.990Z,12.50
2022-09-05T03:52:11.757Z,12.50
2022-09-05T03:57:07.548Z,12.50
2022-09-05T03:57:19.161Z,12.50
2022-09-05T03:58:55.554Z,12.40
2022-09-05T04:03:40.820Z,12.40
2022-09-05T04:08:11.158Z,12.40
2022-09-05T04:08:17.303Z,12.50
2022-09-05T04:09:53.497Z,12.40
2022-09-05T04:12:43.629Z,12.40
2022-09-05T04:15:13.483Z,12.30
2022-09-05T04:17:40.278Z,12.40
2022-09-05T04:20:07.118Z,12.40
2022-09-05T04:22:43.234Z,12.30
2022-09-05T04:25:18.706Z,12.40
2022-09-05T04:27:53.203Z,12.30
2022-09-05T04:30:37.933Z,12.30
2022-09-05T04:33:19.349Z,12.30
2022-09-05T04:35:49.071Z,12.20
2022-09-05T04:38:33.822Z,12.20
2022-09-05T04:41:21.378Z,12.20
2022-09-05T04:44:14.992Z,12.20
2022-09-05T04:46:48.450Z,12.20
2022-09-05T04:49:20.486Z,12.20
2022-09-05T04:52:31.078Z,12.20
2022-09-05T04:55:01.564Z,12.30
2022-09-05T04:57:37.746Z,12.30
2022-09-05T05:05:56.751Z,12.30
2022-09-05T05:06:11.033Z,12.40
2022-09-05T05:06:12.234Z,12.40
2022-09-05T05:08:41.869Z,12.50
2022-09-05T05:16:20.662Z,12.50
2022-09-05T05:18:03.289Z,12.50
2022-09-05T05:18:15.464Z,12.50
2022-09-05T05:20:42.797Z,12.50
2022-09-05T05:23:08.111Z,12.60
2022-09-05T05:25:47.435Z,12.70
2022-09-05T05:28:24.833Z,12.80
2022-09-05T05:30:58.360Z,12.80
2022-09-05T05:33:31.488Z,12.80
2022-09-05T05:35:59.271Z,12.90
2022-09-05T05:38:26.277Z,13.00
2022-09-05T05:40:55.511Z,13.10
2022-09-05T05:43:46.309Z,13.10
2022-09-05T05:48:51.303Z,13.30
2022-09-05T05:52:01.367Z,13.40
2022-09-05T05:54:22.877Z,13.50
2022-09-05T05:56:59.926Z,13.60
2022-09-05T05:59:56.242Z,13.70
2022-09-05T06:02:42.139Z,13.80
2022-09-05T06:05:18.927Z,13.90
2022-09-05T06:14:56.250Z,14.20
2022-09-05T06:15:06.531Z,14.10
2022-09-05T06:16:33.400Z,14.30
2022-09-05T06:19:11.889Z,14.50
2022-09-05T06:22:08.969Z,14.60
2022-09-05T06:27:01.926Z,14.90
2022-09-05T06:29:47.373Z,15.10
2022-09-05T06:32:27.419Z,15.20
2022-09-05T06:34:57.052Z,15.30
2022-09-05T06:37:44.853Z,15.50
2022-09-05T06:40:14.826Z,15.50
2022-09-05T06:42:44.719Z,15.70
2022-09-05T06:45:28.461Z,15.80
2022-09-05T06:48:02.552Z,15.90
2022-09-05T06:50:57.549Z,16.00
2022-09-05T06:53:39.108Z,16.20
2022-09-05T06:56:26.022Z,16.30
2022-09-05T06:59:12.256Z,16.40
2022-09-05T07:02:00.367Z,16.40
2022-09-05T07:05:14.816Z,16.50
2022-09-05T07:07:22.952Z,16.50
2022-09-05T07:15:08.889Z,16.80
2022-09-05T07:18:06.456Z,16.90
2022-09-05T07:21:06.753Z,17.20
2022-09-05T07:24:06.887Z,17.40
2022-09-05T07:26:49.676Z,17.40
2022-09-05T07:29:24.159Z,17.40
2022-09-05T07:31:53.851Z,17.50
2022-09-05T07:34:33.373Z,17.60
2022-09-05T07:37:15.854Z,17.70
2022-09-05T07:39:54.900Z,17.70
2022-09-05T07:42:26.117Z,17.90
2022-09-05T07:44:56.673Z,17.90
2022-09-05T07:47:29.223Z,18.00
2022-09-05T07:56:56.298Z,18.40
2022-09-05T07:57:09.945Z,18.50
2022-09-05T07:58:27.347Z,18.60
2022-09-05T08:00:56.600Z,18.60
2022-09-05T08:03:25.374Z,18.60
2022-09-05T08:08:28.318Z,18.60
2022-09-05T08:11:22.071Z,18.70
2022-09-05T08:14:23.448Z,18.80
2022-09-05T08:16:44.012Z,18.90
2022-09-05T08:19:10.855Z,18.90
2022-09-05T08:24:21.520Z,19.10
2022-09-05T08:26:50.964Z,19.10
2022-09-05T08:29:17.851Z,19.20
2022-09-05T08:34:45.788Z,19.30
2022-09-05T08:37:20.845Z,19.40
2022-09-05T08:42:38.770Z,19.60
2022-09-05T08:48:02.475Z,19.70
2022-09-05T08:50:35.620Z,19.80
2022-09-05T08:53:18.704Z,20.10
2022-09-05T08:56:20.648Z,20.00
2022-09-05T08:59:28.335Z,20.10
2022-09-05T09:05:01.606Z,20.00
2022-09-05T09:07:50.624Z,20.00
2022-09-05T09:10:22.556Z,20.10
2022-09-05T09:13:03.943Z,20.10
2022-09-05T09:15:37.356Z,20.10
2022-09-05T09:18:35.397Z,20.20
2022-09-05T09:21:23.325Z,20.40
2022-09-05T09:23:52.007Z,20.40
2022-09-05T09:26:30.039Z,20.60
2022-09-05T09:29:02.481Z,20.60
2022-09-05T09:31:44.631Z,20.80
2022-09-05T09:34:18.473Z,20.80
2022-09-05T09:37:03.926Z,20.90
2022-09-05T09:39:38.679Z,21.00
2022-09-05T09:42:09.230Z,20.80
2022-09-05T09:44:48.433Z,20.70
2022-09-05T09:47:20.922Z,20.50
2022-09-05T09:49:47.793Z,20.60
2022-09-05T09:55:08.197Z,20.80
2022-09-05T09:57:59.619Z,20.80
2022-09-05T10:10:33.121Z,20.90
2022-09-05T10:10:38.001Z,21.10
2022-09-05T10:10:58.387Z,21.00
2022-09-05T10:11:55.618Z,21.10
2022-09-05T10:25:19.368Z,21.60
2022-09-05T10:27:46.887Z,21.80
2022-09-05T10:31:09.982Z,22.10
2022-09-05T10:35:14.035Z,22.20
2022-09-05T10:36:28.832Z,22.20
2022-09-05T10:38:57.455Z,22.10
2022-09-05T10:41:30.590Z,22.00
2022-09-05T10:44:02.445Z,22.10
2022-09-05T10:46:49.728Z,22.10
2022-09-05T10:49:16.695Z,21.90
2022-09-05T10:51:51.830Z,21.80
2022-09-05T10:54:26.699Z,21.60
2022-09-05T10:57:05.989Z,21.60
2022-09-05T11:02:15.923Z,21.50
2022-09-05T11:02:46.222Z,21.40
2022-09-05T11:05:26.604Z,21.40
2022-09-05T11:07:59.345Z,21.30
2022-09-05T11:10:33.662Z,21.30
2022-09-05T11:13:20.098Z,21.40
2022-09-05T11:16:04.837Z,21.40
2022-09-05T11:18:56.342Z,21.60
2022-09-05T11:21:38.973Z,21.90
2022-09-05T11:24:05.908Z,21.80
2022-09-05T11:26:47.688Z,21.90
2022-09-05T11:34:50.123Z,21.70
2022-09-05T11:40:05.988Z,21.40
2022-09-05T11:40:07.230Z,21.60
2022-09-05T11:43:34.987Z,21.30
2022-09-05T11:46:10.929Z,21.50
2022-09-05T11:48:53.455Z,21.60
2022-09-05T11:51:33.483Z,21.90
2022-09-05T11:54:00.971Z,22.20
2022-09-05T11:56:42.626Z,22.30
2022-09-05T11:59:13.845Z,22.20
2022-09-05T12:01:53.559Z,22.20
2022-09-05T12:04:26.914Z,22.10
2022-09-05T12:07:32.388Z,22.20
2022-09-05T12:10:12.056Z,22.30
2022-09-05T12:12:58.334Z,22.40
2022-09-05T12:15:25.363Z,22.30
2022-09-05T12:18:03.859Z,22.30
2022-09-05T12:20:54.749Z,22.10
2022-09-05T12:27:43.706Z,21.90
2022-09-05T12:29:32.630Z,22.00
2022-09-05T12:32:50.421Z,22.20
2022-09-05T12:36:09.835Z,22.50
2022-09-05T12:40:44.773Z,22.70
2022-09-05T12:41:34.562Z,22.90
2022-09-05T12:41:41.475Z,22.00
2022-09-05T12:44:45.158Z,23.00
2022-09-05T12:46:33.553Z,22.90
2022-09-05T12:49:07.186Z,22.70
2022-09-05T12:51:46.493Z,22.50
2022-09-05T13:01:33.318Z,22.50
2022-09-05T13:03:03.635Z,22.70
2022-09-05T13:05:26.304Z,22.70
2022-09-05T13:07:57.167Z,22.80
2022-09-05T13:14:18.866Z,22.70
2022-09-05T13:14:58.078Z,22.60
2022-09-05T13:15:58.121Z,22.60
2022-09-05T13:18:28.678Z,22.70
2022-09-05T13:20:55.473Z,22.70
2022-09-05T13:23:27.613Z,22.70
2022-09-05T13:28:25.361Z,22.80
2022-09-05T13:35:35.113Z,22.80
2022-09-05T13:38:03.242Z,22.90
2022-09-05T13:38:05.947Z,22.90
2022-09-05T13:39:28.246Z,22.80
2022-09-05T13:41:59.559Z,22.70
2022-09-05T13:44:28.279Z,22.60
2022-09-05T13:46:58.553Z,22.50
2022-09-05T13:49:31.621Z,22.50
2022-09-05T13:52:08.086Z,22.50
2022-09-05T13:54:57.313Z,22.50
2022-09-05T13:57:40.422Z,22.30
2022-09-05T14:00:08.565Z,22.30
2022-09-05T14:08:18.137Z,22.10
2022-09-05T14:10:47.982Z,22.10
2022-09-05T14:13:17.659Z,22.10
2022-09-05T14:16:11.155Z,22.10
2022-09-05T14:39:57.846Z,22.10
2022-09-05T14:42:41.228Z,22.10
2022-09-05T14:47:59.826Z,22.00
2022-09-05T15:05:11.184Z,22.10
2022-09-05T15:08:14.828Z,22.10
2022-09-05T15:13:57.229Z,22.20
2022-09-05T15:18:53.443Z,22.10
2022-09-05T15:21:33.507Z,22.00
2022-09-05T15:27:00.672Z,21.90
2022-09-05T15:29:30.718Z,21.90
2022-09-05T15:32:22.648Z,21.80
2022-09-05T15:37:36.140Z,21.80
2022-09-05T15:40:07.737Z,21.80
2022-09-05T15:42:58.936Z,21.80
2022-09-05T15:45:28.045Z,21.80
2022-09-05T15:48:02.410Z,21.80
2022-09-05T15:50:37.353Z,21.80
2022-09-05T15:53:04.372Z,21.80
2022-09-05T15:55:50.467Z,21.80
2022-09-05T15:58:28.462Z,21.70
2022-09-05T16:01:31.185Z,21.80
2022-09-05T16:07:59.919Z,21.70
2022-09-05T16:10:36.699Z,21.80
2022-09-05T16:10:39.840Z,21.70
2022-09-05T16:12:47.265Z,21.70
2022-09-05T16:21:31.218Z,21.70
2022-09-05T16:23:25.288Z,21.60
2022-09-05T16:23:32.504Z,21.70
2022-09-05T16:24:14.985Z,21.60
2022-09-05T16:26:49.008Z,21.40
2022-09-05T16:29:26.410Z,21.40
2022-09-05T16:32:18.245Z,21.40
2022-09-05T16:34:54.799Z,21.30
2022-09-05T16:37:46.028Z,21.20
2022-09-05T16:40:42.236Z,21.20
2022-09-05T16:43:22.475Z,21.10
2022-09-05T16:46:04.411Z,21.00
2022-09-05T16:48:51.497Z,20.90
2022-09-05T16:54:28.856Z,20.70
2022-09-05T16:56:58.474Z,20.60
2022-09-05T16:59:29.520Z,20.50
2022-09-05T17:02:20.450Z,20.30
2022-09-05T17:05:03.640Z,20.20
2022-09-05T17:08:05.247Z,20.10
2022-09-05T17:10:57.548Z,20.00
2022-09-05T17:13:53.339Z,19.80
2022-09-05T17:16:31.429Z,19.70
2022-09-05T17:19:00.879Z,19.60
2022-09-05T17:24:02.106Z,19.50
2022-09-05T17:29:25.141Z,19.40
2022-09-05T17:29:35.287Z,19.20
2022-09-05T17:31:47.321Z,19.10
2022-09-05T17:33:29.492Z,19.00
2022-09-05T17:36:42.551Z,19.00
2022-09-05T17:41:47.018Z,18.70
2022-09-05T17:44:31.969Z,18.60
2022-09-05T17:47:08.014Z,18.50
2022-09-05T17:49:47.776Z,18.40
2022-09-05T17:52:18.289Z,18.30
2022-09-05T18:06:12.143Z,18.00
2022-09-05T18:17:35.123Z,17.70
2022-09-05T18:25:28.943Z,17.50
2022-09-05T18:39:29.525Z,17.20
2022-09-05T18:50:34.287Z,17.00
2022-09-05T18:56:13.483Z,16.90
2022-09-05T19:20:31.847Z,16.60
2022-09-05T19:36:54.024Z,16.40
2022-09-05T19:44:32.461Z,16.30
2022-09-05T19:51:17.626Z,16.20
2022-09-05T20:06:30.962Z,15.90
2022-09-05T20:33:22.217Z,15.80
2022-09-05T20:55:41.307Z,15.60
2022-09-05T21:00:41.324Z,15.50
2022-09-05T21:11:33.120Z,15.40
2022-09-05T21:31:32.478Z,15.20
2022-09-05T21:59:17.908Z,15.00
2022-09-05T22:23:12.976Z,15.10
2022-09-05T23:10:14.636Z,15.10
2022-09-05T23:15:10.023Z,15.20
2022-09-05T23:27:38.708Z,15.40
